KAKH/AKH METAR and TAF weather

Enter ICAO airport designator
Station Type Date Time Source
KAKH METAR 2019/06/26 22:54 UTC NOAA

KAKH 262254Z AUTO 00000KT 10SM CLR 28/21 A3015 RMK AO2 SLP201 T02830206


Station Type Date Time Source
KAKH Decoded METAR 2019/06/26 22:54 UTC NOAA

GASTONIA MUNICIPAL AIRPORT, NC, United States (KAKH) 35-12N 81-09W 243M
Jun 26, 2019 - 06:54 PM EDT / 2019.06.26 2254 UTC
Wind: Calm:0
Visibility: 10 mile(s):0
Sky conditions: clear
Temperature: 82.9 F (28.3 C)
Dew Point: 69.1 F (20.6 C)
Relative Humidity: 63%
Pressure (altimeter): 30.15 in. Hg (1020 hPa)
ob: KAKH 262254Z AUTO 00000KT 10SM CLR 28/21 A3015 RMK AO2 SLP201 T02830206
cycle: 23

Station Type Date Time Source
KAKH TAF UTC NOAA

Error!

Example: see airport list